Time;durP1;ratioP1;P1;durP2;ratioP2;P2;SDS_P1;SDS_P2;PMS_P1;PMS_P2;Temp;Humidity;BMP_temperature;BMP_pressure;BME280_temperature;BME280_humidity;BME280_pressure;Samples;Min_cycle;Max_cycle;Signal;HPM_P1;HPM_P2
2021/01/14 00:00:26;;;;;;;5.63;0.70;;;2.10;99.10;;;;;;4973435;28;20067;-88
2021/01/14 00:02:52;;;;;;;4.90;0.73;;;2.10;98.50;;;;;;4974746;28;20051;-89
2021/01/14 00:05:18;;;;;;;0.45;0.30;;;2.20;98.80;;;;;;4938955;28;20054;-88
2021/01/14 00:07:44;;;;;;;10.48;1.30;;;2.60;98.10;;;;;;4974573;28;20367;-90
2021/01/14 00:10:13;;;;;;;10.32;0.90;;;2.40;98.30;;;;;;4958116;28;20551;-90
2021/01/14 00:12:40;;;;;;;6.05;1.30;;;2.40;97.50;;;;;;4944960;28;20054;-89
2021/01/14 00:15:07;;;;;;;4.10;0.40;;;2.60;97.80;;;;;;4972020;28;20053;-89
2021/01/14 00:17:33;;;;;;;4.70;0.63;;;2.50;98.00;;;;;;4974713;28;20093;-89
2021/01/14 00:19:59;;;;;;;3.08;1.00;;;2.50;98.10;;;;;;4971897;28;20432;-89
2021/01/14 00:22:26;;;;;;;4.80;1.48;;;2.50;98.40;;;;;;4975588;28;20042;-89
2021/01/14 00:24:52;;;;;;;7.00;1.35;;;2.40;98.30;;;;;;4985107;28;20101;-88
2021/01/14 00:27:18;;;;;;;5.68;0.52;;;2.40;97.10;;;;;;4967376;28;20543;-89
2021/01/14 00:29:44;;;;;;;7.18;0.70;;;2.30;97.50;;;;;;4974693;28;20133;-88
2021/01/14 00:32:10;;;;;;;6.47;0.95;;;2.80;97.20;;;;;;4987715;28;20133;-88
2021/01/14 00:34:38;;;;;;;0.00;0.00;;;2.30;97.10;;;;;;4957777;28;20057;-89
2021/01/14 00:39:53;;;;;;;12.93;1.23;;;2.40;96.80;;;;;;4975460;28;20050;-88
2021/01/14 00:42:19;;;;;;;6.65;0.40;;;2.40;96.90;;;;;;4972639;28;20074;-89
2021/01/14 00:44:45;;;;;;;4.70;0.82;;;2.20;97.20;;;;;;4956311;28;20572;-89
2021/01/14 00:47:11;;;;;;;12.52;1.42;;;2.20;97.00;;;;;;4973431;28;20051;-89
2021/01/14 00:49:37;;;;;;;3.22;0.82;;;2.20;96.50;;;;;;4974201;28;20448;-89
2021/01/14 00:52:03;;;;;;;4.60;0.60;;;2.30;96.60;;;;;;4973097;28;20125;-89
2021/01/14 00:54:29;;;;;;;7.13;1.30;;;2.30;96.80;;;;;;4972740;28;20211;-88
2021/01/14 00:56:55;;;;;;;10.27;1.20;;;2.60;97.40;;;;;;4972081;28;20190;-88
2021/01/14 00:59:21;;;;;;;4.00;0.70;;;2.40;97.00;;;;;;4972214;28;20537;-88
2021/01/14 01:01:47;;;;;;;16.08;1.05;;;2.50;97.30;;;;;;4954488;28;20488;-89
2021/01/14 01:04:16;;;;;;;8.30;0.80;;;2.40;97.60;;;;;;4954829;28;20053;-90
2021/01/14 01:06:42;;;;;;;6.22;1.08;;;2.30;97.50;;;;;;4971769;28;20134;-88
2021/01/14 01:09:11;;;;;;;2.55;0.43;;;2.40;97.50;;;;;;4987495;28;20149;-90
2021/01/14 01:11:38;;;;;;;4.00;0.70;;;2.30;97.80;;;;;;4971500;28;20069;-89
2021/01/14 01:14:05;;;;;;;3.55;1.05;;;2.20;98.00;;;;;;4971382;28;20047;-88
2021/01/14 01:16:31;;;;;;;5.18;0.30;;;2.20;97.80;;;;;;4958538;28;20416;-88
2021/01/14 01:18:57;;;;;;;3.85;0.47;;;2.20;98.10;;;;;;4972129;28;20038;-88
2021/01/14 01:21:23;;;;;;;2.55;0.98;;;2.20;98.30;;;;;;4969820;28;20073;-88
2021/01/14 01:23:49;;;;;;;3.17;0.68;;;2.30;98.50;;;;;;4971020;28;20082;-89
2021/01/14 01:26:19;;;;;;;6.97;1.20;;;2.30;98.70;;;;;;4952243;28;20043;-88
2021/01/14 01:28:46;;;;;;;2.75;0.73;;;2.20;98.70;;;;;;4971004;28;20049;-88
2021/01/14 01:31:13;;;;;;;2.08;0.25;;;2.20;98.20;;;;;;4954523;28;20069;-89
2021/01/14 01:33:39;;;;;;;4.47;0.45;;;2.10;98.30;;;;;;4970195;28;20487;-88
2021/01/14 01:36:06;;;;;;;6.30;0.90;;;2.10;98.40;;;;;;4953805;28;20114;-89
2021/01/14 01:38:32;;;;;;;9.57;0.80;;;2.00;98.50;;;;;;4953770;28;20069;-87
2021/01/14 01:41:02;;;;;;;2.17;0.60;;;1.90;98.70;;;;;;4962948;28;20464;-88
2021/01/14 01:43:28;;;;;;;0.83;0.30;;;1.90;98.80;;;;;;4969832;28;20059;-89
2021/01/14 01:45:55;;;;;;;9.85;1.20;;;1.80;99.20;;;;;;4970237;28;20119;-88
2021/01/14 01:48:23;;;;;;;8.30;1.33;;;1.90;99.20;;;;;;4969596;28;20047;-89
2021/01/14 01:50:50;;;;;;;6.68;0.93;;;1.70;99.20;;;;;;4938232;28;20046;-88
2021/01/14 01:53:17;;;;;;;9.20;1.38;;;1.70;99.50;;;;;;4970274;28;20484;-89
2021/01/14 01:55:44;;;;;;;10.18;1.40;;;1.60;99.40;;;;;;4953209;28;20070;-88
2021/01/14 01:58:11;;;;;;;10.18;1.15;;;1.60;99.30;;;;;;4945888;28;20445;-88
2021/01/14 02:00:37;;;;;;;4.20;0.55;;;1.60;99.40;;;;;;4969582;28;20046;-89
2021/01/14 02:03:03;;;;;;;7.68;0.85;;;1.90;99.10;;;;;;4970303;28;20051;-89
2021/01/14 02:05:30;;;;;;;6.10;1.25;;;1.70;99.10;;;;;;4952325;28;20129;-89
2021/01/14 02:08:17;;;;;;;3.53;0.60;;;1.70;99.30;;;;;;4942949;28;20046;-88
2021/01/14 02:10:59;;;;;;;12.45;0.90;;;1.60;99.20;;;;;;4969219;28;20043;-88
2021/01/14 02:13:34;;;;;;;12.60;1.60;;;2.00;99.40;;;;;;4969279;28;20058;-89
2021/01/14 02:16:14;;;;;;;5.88;0.80;;;1.50;99.50;;;;;;4968265;28;20069;-90
2021/01/14 02:18:42;;;;;;;6.90;0.98;;;1.50;99.80;;;;;;4953468;28;20162;-88
2021/01/14 02:21:12;;;;;;;5.65;1.13;;;1.50;99.90;;;;;;4953472;28;20550;-89
2021/01/14 02:24:07;;;;;;;0.88;0.32;;;1.50;99.90;;;;;;4953043;28;20504;-89
2021/01/14 02:26:36;;;;;;;2.45;0.98;;;1.40;99.90;;;;;;4948271;28;20051;-88
2021/01/14 02:29:03;;;;;;;3.60;0.75;;;1.50;99.90;;;;;;4966769;28;20070;-89
2021/01/14 02:31:29;;;;;;;8.70;1.05;;;1.40;99.90;;;;;;4951872;28;20134;-90
2021/01/14 02:33:56;;;;;;;5.88;0.85;;;1.60;99.90;;;;;;4953625;28;20054;-90
2021/01/14 02:36:24;;;;;;;10.65;1.05;;;1.60;99.90;;;;;;4959796;28;20045;-90
2021/01/14 02:38:51;;;;;;;12.20;1.35;;;1.50;99.90;;;;;;4971066;28;20481;-88
2021/01/14 02:41:17;;;;;;;6.03;1.00;;;1.50;99.90;;;;;;4969409;28;20042;-90
2021/01/14 02:43:43;;;;;;;4.85;0.65;;;1.90;99.90;;;;;;4937004;28;20053;-89
2021/01/14 02:46:10;;;;;;;5.93;1.30;;;1.80;99.90;;;;;;4964325;28;20051;-89
2021/01/14 02:48:40;;;;;;;2.72;0.70;;;1.90;99.90;;;;;;4970093;28;20043;-89
2021/01/14 02:51:15;;;;;;;14.70;2.47;;;1.60;99.90;;;;;;4969836;28;20062;-90
2021/01/14 02:53:42;;;;;;;24.88;1.55;;;1.60;99.50;;;;;;4952667;28;20169;-91
2021/01/14 02:56:10;;;;;;;1.50;0.40;;;1.60;99.70;;;;;;4962872;28;20116;-90
2021/01/14 02:58:36;;;;;;;5.25;1.48;;;1.60;99.70;;;;;;4968605;28;20053;-89
2021/01/14 03:01:01;;;;;;;4.88;1.23;;;1.60;99.50;;;;;;4937441;28;21033;-89
2021/01/14 03:03:27;;;;;;;7.63;1.15;;;1.50;99.60;;;;;;4936553;28;20061;-89
2021/01/14 03:05:53;;;;;;;12.77;2.45;;;1.80;99.70;;;;;;4970163;28;20463;-90
2021/01/14 03:08:19;;;;;;;7.97;0.98;;;1.40;99.90;;;;;;4964227;28;20073;-89
2021/01/14 03:10:45;;;;;;;4.55;0.70;;;1.40;99.60;;;;;;4968508;28;20084;-89
2021/01/14 03:13:11;;;;;;;8.15;1.00;;;1.30;99.90;;;;;;4969613;28;20425;-89
2021/01/14 03:15:37;;;;;;;3.72;0.98;;;1.60;99.90;;;;;;4968532;28;20078;-90
2021/01/14 03:18:03;;;;;;;3.70;1.08;;;1.40;99.90;;;;;;4953839;28;20125;-90
2021/01/14 03:20:29;;;;;;;5.93;1.17;;;1.30;99.70;;;;;;4966108;28;20145;-92
2021/01/14 03:22:55;;;;;;;7.43;1.08;;;1.30;99.80;;;;;;4970684;28;20102;-89
2021/01/14 03:25:21;;;;;;;5.30;0.82;;;1.30;99.90;;;;;;4969277;28;20042;-89
2021/01/14 03:27:47;;;;;;;4.15;0.75;;;1.60;99.90;;;;;;4952336;28;20577;-89
2021/01/14 03:30:14;;;;;;;7.35;0.77;;;1.40;99.90;;;;;;4953434;28;20090;-90
2021/01/14 03:32:40;;;;;;;6.90;1.60;;;1.20;99.90;;;;;;4968147;28;20476;-89
2021/01/14 03:35:08;;;;;;;4.70;1.73;;;1.90;99.90;;;;;;4967639;28;20039;-89
2021/01/14 03:37:41;;;;;;;6.57;1.17;;;1.10;99.90;;;;;;4952378;28;20405;-90
2021/01/14 03:40:09;;;;;;;25.35;1.80;;;1.10;99.90;;;;;;4976643;28;20035;-90
2021/01/14 03:42:36;;;;;;;3.38;1.17;;;1.10;99.90;;;;;;4964684;28;20117;-89
2021/01/14 03:45:03;;;;;;;9.07;1.20;;;1.10;99.90;;;;;;4981715;28;20097;-89
2021/01/14 03:47:29;;;;;;;5.47;1.20;;;1.10;99.90;;;;;;4968088;28;20046;-90
2021/01/14 03:49:55;;;;;;;3.55;1.00;;;1.00;99.90;;;;;;4970551;28;20050;-89
2021/01/14 03:52:23;;;;;;;13.85;1.52;;;1.10;99.90;;;;;;4972507;28;20046;-89
2021/01/14 03:54:49;;;;;;;5.57;1.00;;;1.00;99.90;;;;;;4955052;28;20042;-90
2021/01/14 03:57:15;;;;;;;10.10;1.65;;;1.00;99.90;;;;;;4971804;28;20506;-90
2021/01/14 03:59:43;;;;;;;10.65;1.17;;;1.10;99.90;;;;;;4955824;28;20066;-89
2021/01/14 04:02:09;;;;;;;5.00;1.27;;;1.20;99.90;;;;;;4955970;28;20070;-89
2021/01/14 04:04:40;;;;;;;9.43;1.35;;;0.90;99.90;;;;;;4970997;28;20047;-89
2021/01/14 04:07:08;;;;;;;9.90;1.20;;;1.20;99.90;;;;;;4952916;28;20047;-91
2021/01/14 04:09:34;;;;;;;12.82;1.70;;;1.00;99.90;;;;;;4946588;28;20664;-90
2021/01/14 04:12:00;;;;;;;6.25;1.50;;;1.30;99.90;;;;;;4972521;28;20049;-89
2021/01/14 04:14:26;;;;;;;9.20;1.65;;;1.10;99.90;;;;;;4955586;28;20436;-90
2021/01/14 04:16:53;;;;;;;4.43;1.10;;;1.20;99.90;;;;;;4947311;28;20055;-90
2021/01/14 04:19:19;;;;;;;8.43;1.83;;;1.30;99.90;;;;;;4972490;28;20051;-90
2021/01/14 04:21:45;;;;;;;7.93;1.75;;;1.30;99.90;;;;;;4971513;28;20073;-90
2021/01/14 04:24:12;;;;;;;7.78;1.48;;;1.30;99.90;;;;;;4972115;28;20491;-90
2021/01/14 04:26:38;;;;;;;8.52;1.40;;;1.30;99.90;;;;;;4961834;28;20045;-89
2021/01/14 04:29:05;;;;;;;11.55;1.75;;;1.40;99.90;;;;;;4940351;28;20102;-89
2021/01/14 04:31:31;;;;;;;8.20;1.75;;;1.60;99.90;;;;;;4955901;28;20100;-90
2021/01/14 04:33:57;;;;;;;10.75;1.83;;;1.50;99.90;;;;;;4955457;28;20050;-89
2021/01/14 04:36:23;;;;;;;7.78;1.40;;;1.70;99.90;;;;;;4959320;28;20060;-89
2021/01/14 04:38:49;;;;;;;11.80;1.60;;;1.50;99.90;;;;;;4939412;28;20429;-89
2021/01/14 04:41:20;;;;;;;4.45;1.70;;;1.80;99.90;;;;;;4971817;28;20039;-89
2021/01/14 04:43:47;;;;;;;4.38;1.13;;;1.70;99.90;;;;;;4971216;28;20039;-90
2021/01/14 04:46:14;;;;;;;2.10;1.20;;;1.50;99.90;;;;;;4923698;28;20114;-89
2021/01/14 04:48:45;;;;;;;11.48;1.60;;;1.40;99.90;;;;;;4943667;28;20062;-90
2021/01/14 04:51:13;;;;;;;10.25;1.80;;;1.40;99.90;;;;;;4971890;28;20121;-90
2021/01/14 04:53:44;;;;;;;11.07;2.25;;;1.40;99.90;;;;;;4967969;28;20047;-91
2021/01/14 04:56:12;;;;;;;9.27;2.20;;;1.30;99.90;;;;;;4964528;28;20039;-90
2021/01/14 04:58:47;;;;;;;10.75;2.85;;;1.20;99.90;;;;;;4970728;28;20035;-90
2021/01/14 05:01:21;;;;;;;10.45;1.70;;;1.10;99.90;;;;;;4937633;28;20064;-89
2021/01/14 05:03:50;;;;;;;6.90;1.67;;;1.00;99.90;;;;;;4969844;28;20051;-89
2021/01/14 05:06:17;;;;;;;3.75;1.83;;;1.00;99.90;;;;;;4965551;28;20043;-91
2021/01/14 05:08:45;;;;;;;8.73;2.00;;;1.00;99.90;;;;;;4951891;28;20142;-90
2021/01/14 05:11:16;;;;;;;8.15;2.00;;;1.00;99.90;;;;;;4968769;28;20125;-91
2021/01/14 05:13:46;;;;;;;9.25;2.95;;;1.00;99.90;;;;;;4980706;28;20043;-90
2021/01/14 05:16:21;;;;;;;10.07;2.40;;;1.00;99.90;;;;;;4955564;28;20469;-91
2021/01/14 05:18:46;;;;;;;8.50;2.00;;;1.30;99.90;;;;;;4984369;28;20053;-90
2021/01/14 05:21:12;;;;;;;10.70;2.30;;;0.90;99.90;;;;;;4979547;28;20055;-90
2021/01/14 05:23:41;;;;;;;11.43;1.90;;;0.80;99.90;;;;;;4987620;28;20500;-92
2021/01/14 05:26:07;;;;;;;6.85;2.22;;;0.80;99.90;;;;;;4980846;28;20051;-90
2021/01/14 05:28:33;;;;;;;9.10;2.25;;;0.80;99.90;;;;;;4969013;28;20494;-89
2021/01/14 05:31:18;;;;;;;7.00;1.70;;;1.00;99.90;;;;;;4980906;28;20113;-90
2021/01/14 05:33:58;;;;;;;16.80;2.42;;;0.80;99.90;;;;;;4970867;28;20057;-91
2021/01/14 05:36:24;;;;;;;10.70;2.67;;;1.00;99.90;;;;;;4962949;28;20050;-92
2021/01/14 05:38:51;;;;;;;23.02;2.42;;;0.90;99.90;;;;;;4970569;28;20039;-92
2021/01/14 05:41:18;;;;;;;5.35;2.33;;;0.80;99.90;;;;;;4954966;28;20042;-92
2021/01/14 05:43:57;;;;;;;9.00;2.20;;;0.80;99.90;;;;;;4956614;28;20050;-92
2021/01/14 05:46:28;;;;;;;6.70;2.47;;;0.80;99.90;;;;;;4953477;28;20056;-92
2021/01/14 05:48:59;;;;;;;16.17;2.58;;;0.80;99.90;;;;;;4980985;28;20042;-91
2021/01/14 05:51:33;;;;;;;8.70;2.72;;;0.70;99.90;;;;;;4960026;28;20452;-89
2021/01/14 05:54:08;;;;;;;7.60;1.85;;;0.70;99.90;;;;;;4971133;28;20034;-90
2021/01/14 05:56:45;;;;;;;8.95;2.40;;;0.60;99.90;;;;;;4971974;28;20039;-92
2021/01/14 05:59:13;;;;;;;7.63;2.13;;;0.60;99.90;;;;;;4972800;28;20042;-87
2021/01/14 06:01:55;;;;;;;8.95;2.13;;;0.60;99.90;;;;;;4969633;28;20035;-88
2021/01/14 06:04:23;;;;;;;10.63;3.22;;;0.70;99.90;;;;;;4981917;28;20034;-88
2021/01/14 06:06:51;;;;;;;16.85;3.00;;;0.70;99.90;;;;;;4977523;28;20050;-87
2021/01/14 06:09:19;;;;;;;12.57;3.05;;;0.70;99.90;;;;;;4977925;28;20050;-87
2021/01/14 06:11:46;;;;;;;8.60;2.72;;;0.80;99.90;;;;;;4969711;28;20039;-88
2021/01/14 06:14:24;;;;;;;6.13;2.63;;;0.90;99.90;;;;;;4969997;28;20055;-87
2021/01/14 06:16:50;;;;;;;6.70;2.25;;;0.90;99.90;;;;;;4966595;28;20508;-88
2021/01/14 06:19:16;;;;;;;10.57;2.88;;;1.00;99.90;;;;;;4982452;28;20417;-86
2021/01/14 06:21:46;;;;;;;13.73;3.55;;;1.00;99.90;;;;;;4970417;28;20499;-87
2021/01/14 06:24:25;;;;;;;10.93;3.35;;;1.10;99.90;;;;;;4969476;28;20046;-85
2021/01/14 06:26:55;;;;;;;6.90;2.78;;;1.10;99.90;;;;;;4960951;28;20613;-87
2021/01/14 06:29:26;;;;;;;12.75;2.78;;;1.10;99.90;;;;;;4970451;28;20050;-86
2021/01/14 06:32:14;;;;;;;9.40;2.55;;;1.20;99.90;;;;;;4970213;28;20046;-86
2021/01/14 06:34:43;;;;;;;9.70;2.95;;;1.20;99.90;;;;;;4969508;28;20043;-86
2021/01/14 06:37:09;;;;;;;9.30;2.60;;;1.20;99.90;;;;;;4959301;28;20050;-86
2021/01/14 06:39:39;;;;;;;11.07;3.15;;;1.30;99.90;;;;;;4970605;28;20385;-87
2021/01/14 06:42:24;;;;;;;14.75;2.83;;;1.30;99.90;;;;;;4969931;28;20626;-86
2021/01/14 06:44:50;;;;;;;16.00;3.40;;;1.30;99.90;;;;;;4968266;28;20461;-86
2021/01/14 06:47:28;;;;;;;16.63;3.75;;;1.30;99.90;;;;;;4970348;28;20082;-86
2021/01/14 06:50:10;;;;;;;18.77;3.50;;;1.30;99.90;;;;;;4968637;28;20043;-86
2021/01/14 06:52:42;;;;;;;8.93;3.13;;;1.30;99.90;;;;;;4969501;28;20049;-86
2021/01/14 06:55:13;;;;;;;8.43;3.65;;;1.30;99.90;;;;;;4968245;28;20101;-86
2021/01/14 06:57:41;;;;;;;8.32;2.30;;;1.30;99.90;;;;;;4966303;28;20090;-86
2021/01/14 07:00:09;;;;;;;18.98;3.90;;;1.30;99.90;;;;;;4964587;28;20043;-87
2021/01/14 07:02:49;;;;;;;15.82;2.63;;;1.20;99.90;;;;;;4969652;28;20043;-86
2021/01/14 07:05:22;;;;;;;12.82;3.42;;;1.20;99.90;;;;;;4981803;28;20393;-87
2021/01/14 07:07:54;;;;;;;11.10;3.42;;;1.20;99.90;;;;;;4969157;28;20137;-88
2021/01/14 07:10:21;;;;;;;14.30;3.58;;;1.20;99.90;;;;;;4967868;28;20441;-86
2021/01/14 07:12:47;;;;;;;15.57;3.53;;;1.20;99.90;;;;;;4971021;28;20389;-88
2021/01/14 07:15:17;;;;;;;8.25;3.60;;;1.10;99.90;;;;;;4968442;28;20061;-87
2021/01/14 07:17:45;;;;;;;11.65;3.30;;;1.00;99.90;;;;;;4983645;28;20452;-88
2021/01/14 07:20:13;;;;;;;10.95;3.42;;;1.00;99.90;;;;;;4969400;28;20062;-87
2021/01/14 07:22:59;;;;;;;9.73;3.40;;;0.90;99.90;;;;;;4976651;28;20070;-85
2021/01/14 07:25:26;;;;;;;11.75;3.28;;;1.00;99.90;;;;;;4979272;28;20648;-87
2021/01/14 07:27:52;;;;;;;10.30;3.42;;;0.90;99.90;;;;;;4978959;28;20989;-87
2021/01/14 07:30:20;;;;;;;11.93;3.13;;;0.90;99.90;;;;;;4976279;28;20039;-87
2021/01/14 07:32:54;;;;;;;9.93;3.55;;;0.90;99.90;;;;;;4979021;28;20035;-87
2021/01/14 07:35:40;;;;;;;13.65;3.33;;;0.90;99.90;;;;;;4968914;28;20836;-85
2021/01/14 07:38:10;;;;;;;11.18;3.22;;;0.90;99.90;;;;;;4983980;28;20054;-85
2021/01/14 07:40:37;;;;;;;9.10;3.35;;;0.80;99.90;;;;;;4979433;28;20045;-84
2021/01/14 07:43:08;;;;;;;11.98;2.90;;;0.80;99.90;;;;;;4982970;28;20094;-84
2021/01/14 07:45:35;;;;;;;15.95;4.57;;;0.80;99.90;;;;;;5006686;28;20049;-84
2021/01/14 07:48:21;;;;;;;13.15;3.67;;;0.70;99.90;;;;;;4988302;28;20491;-85
2021/01/14 07:50:51;;;;;;;18.83;3.38;;;0.70;99.90;;;;;;4965409;28;20051;-85
2021/01/14 07:53:18;;;;;;;10.85;3.40;;;0.60;99.90;;;;;;4971743;28;20054;-85
2021/01/14 07:55:44;;;;;;;12.38;3.45;;;0.60;99.90;;;;;;4940051;28;20046;-85
2021/01/14 07:58:21;;;;;;;19.08;4.03;;;0.60;99.90;;;;;;4939308;28;20142;-85
2021/01/14 08:01:05;;;;;;;12.90;3.90;;;0.50;99.90;;;;;;4970181;28;20441;-84
2021/01/14 08:03:37;;;;;;;17.55;3.97;;;0.50;99.90;;;;;;4969887;28;20053;-85
2021/01/14 08:06:30;;;;;;;17.55;3.80;;;0.60;99.90;;;;;;4971215;28;20046;-84
2021/01/14 08:09:09;;;;;;;14.45;3.30;;;0.50;99.90;;;;;;4967876;28;20478;-85
2021/01/14 08:11:38;;;;;;;13.52;3.92;;;0.50;99.90;;;;;;4971469;28;20049;-85
2021/01/14 08:14:22;;;;;;;12.20;3.30;;;0.50;99.90;;;;;;4953944;28;20054;-85
2021/01/14 08:16:54;;;;;;;9.48;3.53;;;0.50;99.90;;;;;;4972831;28;20043;-86
2021/01/14 08:19:20;;;;;;;20.67;3.97;;;0.60;99.90;;;;;;4982815;28;20946;-85
2021/01/14 08:22:01;;;;;;;14.95;4.03;;;0.50;99.90;;;;;;4971003;28;20199;-87
2021/01/14 08:24:45;;;;;;;10.52;3.22;;;0.60;99.90;;;;;;4978295;28;20034;-86
2021/01/14 08:27:15;;;;;;;13.77;3.90;;;0.60;99.90;;;;;;4974804;28;20046;-85
2021/01/14 08:29:55;;;;;;;7.23;2.93;;;0.60;99.90;;;;;;4978699;28;20046;-87
2021/01/14 08:32:43;;;;;;;7.23;3.40;;;0.70;99.90;;;;;;4982472;28;20046;-86
2021/01/14 08:35:09;;;;;;;15.88;4.35;;;0.80;99.90;;;;;;4963433;28;20480;-87
2021/01/14 08:37:49;;;;;;;18.27;3.63;;;0.90;99.90;;;;;;4988954;28;20046;-87
2021/01/14 08:40:24;;;;;;;12.93;3.35;;;0.90;99.90;;;;;;4980501;28;20031;-87
2021/01/14 08:43:02;;;;;;;10.05;3.25;;;0.90;99.90;;;;;;4985869;28;20050;-86
2021/01/14 08:45:31;;;;;;;12.27;3.45;;;0.90;99.90;;;;;;4981734;28;20046;-86
2021/01/14 08:48:06;;;;;;;12.20;3.55;;;1.00;99.90;;;;;;4986898;28;20109;-86
2021/01/14 08:50:34;;;;;;;11.65;3.42;;;0.90;99.90;;;;;;4974407;28;20038;-87
2021/01/14 08:53:05;;;;;;;17.40;3.53;;;1.00;99.90;;;;;;4971971;28;20047;-86
2021/01/14 08:55:31;;;;;;;13.88;3.20;;;1.00;99.90;;;;;;4989518;28;20093;-87
2021/01/14 08:57:57;;;;;;;10.50;3.92;;;1.00;99.90;;;;;;4990137;28;20146;-86
2021/01/14 09:00:26;;;;;;;14.98;4.45;;;1.00;99.90;;;;;;4976429;28;20046;-86
2021/01/14 09:02:53;;;;;;;23.23;3.90;;;1.00;99.90;;;;;;4999494;28;20484;-86
2021/01/14 09:05:19;;;;;;;9.00;3.17;;;1.00;99.90;;;;;;4986267;28;20365;-86
2021/01/14 09:08:04;;;;;;;7.70;3.42;;;1.00;99.90;;;;;;4980314;28;20066;-86
2021/01/14 09:10:43;;;;;;;13.25;3.58;;;1.00;99.90;;;;;;4955851;28;20054;-86
2021/01/14 09:13:11;;;;;;;11.27;3.70;;;1.00;99.90;;;;;;4954355;28;20066;-87
2021/01/14 09:15:37;;;;;;;11.32;3.60;;;1.10;99.90;;;;;;4971885;28;20046;-86
2021/01/14 09:18:03;;;;;;;10.48;3.53;;;1.10;99.90;;;;;;4970338;28;20460;-87
2021/01/14 09:20:30;;;;;;;11.25;3.30;;;1.10;99.90;;;;;;4953681;28;20117;-87
2021/01/14 09:23:17;;;;;;;11.07;3.35;;;1.10;99.90;;;;;;4985107;28;20054;-86
2021/01/14 09:25:45;;;;;;;12.98;3.47;;;1.10;99.90;;;;;;4970951;28;20049;-86
2021/01/14 09:28:11;;;;;;;29.67;3.92;;;1.20;99.90;;;;;;4969718;28;20054;-87
2021/01/14 09:30:38;;;;;;;19.27;4.10;;;1.20;99.90;;;;;;4954495;28;20038;-85
2021/01/14 09:33:05;;;;;;;7.80;3.50;;;1.20;99.90;;;;;;4970787;28;20042;-85
2021/01/14 09:35:31;;;;;;;11.88;3.05;;;1.20;99.90;;;;;;4970533;28;20049;-84
2021/01/14 09:37:56;;;;;;;7.35;2.75;;;1.30;99.90;;;;;;4970193;28;20047;-84
2021/01/14 09:40:22;;;;;;;11.13;3.35;;;1.30;99.90;;;;;;4962599;28;20079;-84
2021/01/14 09:42:52;;;;;;;14.75;3.35;;;1.30;99.90;;;;;;4969900;28;20050;-84
2021/01/14 09:45:20;;;;;;;27.02;3.80;;;1.30;99.90;;;;;;4970836;28;20038;-84
2021/01/14 09:47:50;;;;;;;16.50;4.47;;;1.30;99.90;;;;;;4953816;28;20477;-84
2021/01/14 09:50:17;;;;;;;11.95;3.35;;;1.30;99.90;;;;;;4965997;28;20031;-87
2021/01/14 09:52:44;;;;;;;13.25;4.97;;;1.30;99.90;;;;;;4947386;28;20445;-88
2021/01/14 09:55:14;;;;;;;12.45;3.80;;;1.40;99.90;;;;;;4984628;28;20047;-89
2021/01/14 09:57:46;;;;;;;6.15;3.38;;;1.40;99.90;;;;;;4995729;28;20049;-85
2021/01/14 10:00:20;;;;;;;15.77;3.63;;;1.50;99.90;;;;;;4980721;28;20467;-85
2021/01/14 10:02:50;;;;;;;11.63;3.58;;;1.40;99.90;;;;;;4976878;28;20109;-85
2021/01/14 10:05:19;;;;;;;13.32;3.97;;;1.40;99.90;;;;;;4971509;28;20108;-84
2021/01/14 10:07:50;;;;;;;13.93;3.58;;;1.50;99.90;;;;;;4980956;28;20473;-85
2021/01/14 10:10:18;;;;;;;8.18;3.80;;;1.50;99.90;;;;;;4958001;28;20043;-84
2021/01/14 10:12:44;;;;;;;10.63;3.53;;;1.50;99.90;;;;;;4968127;28;20045;-83
2021/01/14 10:15:14;;;;;;;13.18;4.07;;;1.60;99.90;;;;;;4959930;28;20054;-84
2021/01/14 10:17:41;;;;;;;7.53;3.38;;;1.50;99.90;;;;;;4974288;28;20050;-83
2021/01/14 10:20:12;;;;;;;11.68;3.67;;;1.60;99.90;;;;;;4971103;28;20055;-84
2021/01/14 10:22:49;;;;;;;8.88;3.78;;;1.60;99.90;;;;;;4969533;28;20493;-84
2021/01/14 10:25:16;;;;;;;8.85;3.55;;;1.60;99.90;;;;;;4968485;28;20074;-84
2021/01/14 10:27:57;;;;;;;11.40;3.47;;;1.70;99.90;;;;;;4951235;28;20599;-84
2021/01/14 10:30:24;;;;;;;13.57;3.67;;;1.60;99.90;;;;;;4965906;28;20087;-84
2021/01/14 10:32:49;;;;;;;11.20;3.88;;;1.70;99.90;;;;;;4952967;28;20046;-84
2021/01/14 10:35:24;;;;;;;10.68;3.63;;;1.80;99.90;;;;;;4983459;28;20034;-84
2021/01/14 10:38:04;;;;;;;7.68;3.30;;;1.80;99.90;;;;;;4977222;28;20054;-84
2021/01/14 10:40:36;;;;;;;15.10;3.55;;;1.80;99.90;;;;;;4975257;28;20050;-84
2021/01/14 10:43:02;;;;;;;10.25;3.60;;;1.80;99.90;;;;;;4972601;28;20129;-84
2021/01/14 10:45:31;;;;;;;9.15;3.30;;;1.90;99.90;;;;;;4969900;28;20041;-85
2021/01/14 10:48:10;;;;;;;12.05;3.80;;;1.90;99.90;;;;;;4978806;28;20046;-85
2021/01/14 10:50:54;;;;;;;13.90;4.85;;;1.90;99.90;;;;;;4979271;28;20049;-85
2021/01/14 10:53:24;;;;;;;10.15;3.17;;;2.00;99.90;;;;;;4979309;28;20066;-86
2021/01/14 10:56:00;;;;;;;12.97;3.97;;;2.00;99.90;;;;;;4980754;28;20038;-85
2021/01/14 10:58:26;;;;;;;9.23;4.07;;;2.00;99.90;;;;;;4978812;28;20045;-86
2021/01/14 11:00:52;;;;;;;10.07;3.90;;;2.00;99.90;;;;;;5000579;28;20038;-86
2021/01/14 11:03:22;;;;;;;12.15;4.20;;;2.10;99.90;;;;;;4962722;28;20129;-86
2021/01/14 11:05:49;;;;;;;11.80;3.67;;;2.10;99.90;;;;;;4976636;28;20096;-86
2021/01/14 11:08:19;;;;;;;11.85;4.38;;;2.20;99.90;;;;;;4985214;28;20161;-86
2021/01/14 11:11:09;;;;;;;13.70;4.03;;;2.10;99.90;;;;;;4971610;28;20054;-86
2021/01/14 11:13:38;;;;;;;8.07;3.30;;;2.20;99.90;;;;;;4970635;28;20042;-86
2021/01/14 11:16:05;;;;;;;11.55;4.07;;;2.20;99.90;;;;;;4957115;28;20050;-87
2021/01/14 11:18:35;;;;;;;5.93;3.50;;;2.20;99.90;;;;;;4949220;28;20071;-87
2021/01/14 11:21:01;;;;;;;9.55;3.80;;;2.20;99.90;;;;;;4965537;28;20046;-87
2021/01/14 11:23:26;;;;;;;19.02;4.65;;;2.30;99.90;;;;;;4952139;28;20054;-88
2021/01/14 11:25:52;;;;;;;12.30;3.47;;;2.30;99.90;;;;;;4956405;28;20940;-87
2021/01/14 11:28:18;;;;;;;11.80;4.00;;;2.50;99.90;;;;;;4940171;28;20488;-87
2021/01/14 11:30:44;;;;;;;8.93;3.92;;;2.30;99.90;;;;;;4968634;28;20053;-87
2021/01/14 11:33:10;;;;;;;10.32;3.80;;;2.30;99.90;;;;;;4935955;28;20456;-88
2021/01/14 11:35:36;;;;;;;8.93;3.75;;;2.50;99.90;;;;;;4967690;28;20397;-88
2021/01/14 11:38:02;;;;;;;4.82;2.95;;;2.40;99.90;;;;;;4952881;28;20051;-87
2021/01/14 11:40:28;;;;;;;10.05;4.00;;;2.40;99.90;;;;;;4967863;28;20051;-88
2021/01/14 11:42:54;;;;;;;7.43;4.00;;;2.40;99.90;;;;;;4968745;28;20057;-88
2021/01/14 11:45:20;;;;;;;11.02;4.07;;;2.50;99.90;;;;;;4965969;28;20054;-88
2021/01/14 11:47:45;;;;;;;14.40;3.85;;;2.40;99.90;;;;;;4968903;28;20053;-87
2021/01/14 11:50:12;;;;;;;8.82;4.18;;;2.50;99.90;;;;;;4968602;28;20105;-88
2021/01/14 11:52:37;;;;;;;15.88;3.80;;;2.50;99.90;;;;;;4967947;28;20503;-87
2021/01/14 11:55:04;;;;;;;10.70;4.13;;;2.70;99.90;;;;;;4968653;28;20047;-87
2021/01/14 11:57:30;;;;;;;11.38;3.47;;;2.50;99.90;;;;;;4968321;28;20193;-87
2021/01/14 11:59:56;;;;;;;7.97;4.53;;;2.50;99.90;;;;;;4952595;28;20047;-87
2021/01/14 12:02:22;;;;;;;7.68;3.65;;;2.50;99.90;;;;;;4967855;28;20038;-87
2021/01/14 12:04:48;;;;;;;8.48;4.15;;;2.40;99.90;;;;;;4961909;28;20047;-88
2021/01/14 12:07:14;;;;;;;5.18;3.75;;;2.50;99.90;;;;;;4969818;28;20038;-87
2021/01/14 12:09:40;;;;;;;13.38;4.10;;;2.50;99.90;;;;;;4984817;28;20035;-88
2021/01/14 12:12:06;;;;;;;10.48;4.07;;;2.50;99.90;;;;;;4956453;28;20061;-88
2021/01/14 12:14:32;;;;;;;8.75;3.70;;;2.30;99.90;;;;;;4953298;28;20082;-87
2021/01/14 12:16:59;;;;;;;6.93;4.00;;;2.30;99.90;;;;;;4963700;28;20051;-87
2021/01/14 12:19:25;;;;;;;12.85;3.92;;;2.30;99.90;;;;;;4955104;28;20075;-87
2021/01/14 12:22:04;;;;;;;9.38;4.18;;;2.30;99.90;;;;;;4955647;28;20113;-87
2021/01/14 12:24:31;;;;;;;9.68;4.40;;;2.20;99.90;;;;;;4969581;28;20039;-87
2021/01/14 12:26:57;;;;;;;7.68;4.10;;;2.20;99.90;;;;;;4956390;28;20445;-88
2021/01/14 12:29:24;;;;;;;7.22;4.00;;;2.20;99.90;;;;;;4950739;28;20102;-87
2021/01/14 12:31:51;;;;;;;9.45;4.10;;;2.20;99.90;;;;;;4971314;28;20101;-88
2021/01/14 12:34:17;;;;;;;5.55;3.33;;;2.10;99.90;;;;;;4973451;28;20050;-88
2021/01/14 12:36:43;;;;;;;11.60;4.15;;;2.10;99.90;;;;;;4959163;28;20408;-88
2021/01/14 12:39:09;;;;;;;10.23;4.13;;;2.10;99.90;;;;;;4971576;28;20053;-88
2021/01/14 12:41:35;;;;;;;7.72;3.75;;;2.10;99.90;;;;;;4970311;28;20035;-88
2021/01/14 12:44:02;;;;;;;10.73;4.07;;;2.10;99.90;;;;;;4971550;28;20420;-89
2021/01/14 12:46:43;;;;;;;10.00;4.20;;;2.30;99.90;;;;;;4953822;28;20053;-88
2021/01/14 12:49:09;;;;;;;10.48;4.10;;;2.20;99.90;;;;;;4970766;28;20046;-88
2021/01/14 12:51:37;;;;;;;8.98;4.28;;;2.00;99.90;;;;;;4938177;28;20493;-88
2021/01/14 12:54:03;;;;;;;17.35;5.25;;;2.10;99.90;;;;;;4970786;28;20074;-88
2021/01/14 12:56:29;;;;;;;8.48;4.38;;;2.10;99.90;;;;;;4969477;28;20394;-87
2021/01/14 12:58:55;;;;;;;9.77;4.13;;;2.20;99.90;;;;;;4970829;28;20049;-87
2021/01/14 13:01:32;;;;;;;9.02;3.65;;;2.40;99.90;;;;;;4970504;28;20046;-88
2021/01/14 13:03:59;;;;;;;8.50;4.50;;;2.30;99.90;;;;;;4960960;28;20039;-87
2021/01/14 13:06:29;;;;;;;8.02;4.47;;;2.40;99.90;;;;;;4971976;28;20035;-88